Kelly, NC (28448)

12:13 AM EST on January 17, 2018 (GMT -0500)
Miller Place, White Lake | | Change Station
Active Advisory: Winter Weather Advisory

Elev 62 ft 34.63 °N, 78.50 °W | Updated 27 seconds ago

Clear
Clear
32.4 °F
Feels Like 32 °F
N
0.0
Wind Variable Wind from SSE
Gusts 0.0 mph

Today
High -- | Low -- °F
--% Chance of Precip.
Yesterday
High -- | Low -- °F
Precip. -- in
Pressure 30.29 in
Visibility 10.0 miles
Clouds Clear
Windchill 32 °F
Dew Point 18 °F
Humidity 56%
Rainfall 0.00 in
Snow Depth Not available.
7:19 AM 5:28 PM
New Moon, 0% visible
METAR KCPC 170455Z AUTO 00000KT 10SM CLR 01/M01 A3029 RMK AO2 T00061011
Pressure 30.29 in
Visibility 10.0 miles
Clouds Clear
Windchill 32 °F
Dew Point 18 °F
Humidity 56%
Rainfall 0.00 in
Snow Depth Not available.
7:19 AM 5:28 PM
New Moon, 0% visible
METAR KCPC 170455Z AUTO 00000KT 10SM CLR 01/M01 A3029 RMK AO2 T00061011

Get Your Daily Forecast Email!

Thanks for signing up!

Be on the lookout for a verification email in your inbox.

You'll start receiving severe weather alerts in your inbox..

×

10-Day Weather Forecast

Almanac

Astronomy

Jan. 17, 2018 Rise Set
Actual Time
Civil Twilight
Nautical Twilight
Astronomical Twilight
Moon
Length of Visible Light
Length of Day
Tomorrow will be .
, % of the Moon is Illuminated

Today's Extremes

State Highs State Lows

Community

WunderPhotos

Category 6

Welcome to Category 6. This is the collective home for Weather Underground's featured writeups by Dr. Jeff Masters (right), Bob Henson (left), Chris Burt, and other regular contributors.

Nearby

Air Quality

  Air Quality AQ Index Pollutant
Not available.

Snow Depth

Station Depth Elevation

Earthquake Activity

City Distance Mag. Time & Date
Minimum magnitude displayed is 2.5.

Coastal Water Temperatures

Place Temperature

Stations

Nearby Weather Stations

Station Location Temp. Windchill Dew Point Humidity Wind Precip. Elev Updated Type
                   

Watches & Warnings

Winter Weather Advisory
Issued: 2:42 PM EST Jan. 16, 2018 – National Weather Service

... Winter Weather Advisory in effect from 4 am to 7 PM EST
Wednesday...

* what... snow. Plan on slippery Road conditions. Total snow
accumulations of up to one inch are expected in the advisory
area.

* Where... portions of northeast South Carolina and southeast
North Carolina.

* When... from 4 am to 7 PM EST Wednesday.

* Additional details... no significant freezing rain or icing is
expected, however, snow may become compacted on roadways,
forming slick areas.

Precautionary/preparedness actions...

A Winter Weather Advisory for snow means periods of snow will
cause primarily travel difficulties. Be prepared for snow covered
roads and limited visibilities, and use caution while driving.
The latest Road conditions for the state you are calling from can
be obtained from http://drivenc.Gov.


8